createdAt,value
2022-09-24T00:02:45.044Z,7.07
2022-09-24T00:12:44.988Z,6.93
2022-09-24T00:22:45.039Z,7.11
2022-09-24T00:32:45.010Z,7.03
2022-09-24T00:42:45.028Z,6.98
2022-09-24T00:52:44.978Z,6.97
2022-09-24T01:02:45.011Z,6.95
2022-09-24T01:12:45.003Z,7.02
2022-09-24T01:22:44.999Z,7.03
2022-09-24T01:32:44.999Z,7.02
2022-09-24T01:42:45.001Z,6.83
2022-09-24T01:52:44.982Z,6.75
2022-09-24T02:02:45.008Z,6.81
2022-09-24T02:12:44.977Z,6.78
2022-09-24T02:22:45.002Z,6.69
2022-09-24T02:32:44.970Z,6.71
2022-09-24T02:42:44.975Z,6.72
2022-09-24T02:52:44.972Z,6.69
2022-09-24T03:02:45.149Z,6.43
2022-09-24T03:12:44.976Z,6.36
2022-09-24T03:22:44.994Z,6.35
2022-09-24T03:32:44.952Z,6.29
2022-09-24T03:42:44.953Z,6.19
2022-09-24T03:52:44.977Z,6.18
2022-09-24T04:02:45.089Z,6.03
2022-09-24T04:12:44.968Z,6.09
2022-09-24T04:22:44.953Z,6.14
2022-09-24T04:32:44.948Z,5.93
2022-09-24T04:42:44.967Z,5.81
2022-09-24T04:52:44.956Z,5.81
2022-09-24T05:02:47.272Z,5.74
2022-09-24T05:12:44.942Z,5.82
2022-09-24T05:22:44.960Z,5.95
2022-09-24T05:32:44.922Z,6.18
2022-09-24T05:42:44.994Z,6.35
2022-09-24T05:52:44.894Z,6.7
2022-09-24T06:02:45.011Z,7.12
2022-09-24T06:12:44.905Z,7.52
2022-09-24T06:22:44.919Z,7.88
2022-09-24T06:32:44.902Z,8.26
2022-09-24T06:42:44.961Z,8.88
2022-09-24T06:52:44.893Z,9.49
2022-09-24T07:02:45.015Z,10.32
2022-09-24T07:12:44.888Z,11.01
2022-09-24T07:22:44.898Z,11.54
2022-09-24T07:32:44.885Z,11.93
2022-09-24T07:42:44.903Z,12.15
2022-09-24T07:52:44.869Z,12.51
2022-09-24T08:02:44.999Z,13.02
2022-09-24T08:12:44.864Z,13.26
2022-09-24T08:22:44.975Z,13.71
2022-09-24T08:32:44.867Z,14.28
2022-09-24T08:42:44.853Z,14.79
2022-09-24T08:52:44.819Z,15.24
2022-09-24T09:02:44.987Z,16.58
2022-09-24T09:12:44.798Z,17.13
2022-09-24T09:22:44.908Z,17.59
2022-09-24T09:32:44.799Z,17.96
2022-09-24T09:42:44.827Z,18.47
2022-09-24T09:52:44.768Z,18.91
2022-09-24T10:02:44.850Z,18.97
2022-09-24T10:12:44.718Z,18.99
2022-09-24T10:22:44.766Z,18.69
2022-09-24T10:32:44.711Z,19.64
2022-09-24T10:42:44.807Z,19.17
2022-09-24T10:52:44.684Z,19.79
2022-09-24T11:02:44.761Z,19.53
2022-09-24T11:12:44.675Z,19.26
2022-09-24T11:22:44.687Z,18.49
2022-09-24T11:32:44.636Z,18.28
2022-09-24T11:42:44.663Z,17.87
2022-09-24T11:52:44.641Z,17.58
2022-09-24T12:02:44.713Z,17.55
2022-09-24T12:12:44.639Z,17.8
2022-09-24T12:22:44.648Z,18.12
2022-09-24T12:32:44.607Z,18.49
2022-09-24T12:42:44.625Z,18.76
2022-09-24T12:52:44.582Z,19.37
2022-09-24T13:02:44.785Z,18.84
2022-09-24T13:12:44.543Z,18.52
2022-09-24T13:22:44.552Z,18.28
2022-09-24T13:32:44.523Z,18.07
2022-09-24T13:42:44.530Z,17.77
2022-09-24T13:52:44.515Z,17.54
2022-09-24T14:02:44.601Z,17.38
2022-09-24T14:12:44.510Z,17.3
2022-09-24T14:22:44.592Z,17.2
2022-09-24T14:32:44.476Z,17.11
2022-09-24T14:42:44.487Z,17.14
2022-09-24T14:52:44.436Z,17.11
2022-09-24T15:02:44.464Z,17.15
2022-09-24T15:12:44.432Z,17.23
2022-09-24T15:22:44.558Z,17.19
2022-09-24T15:32:44.409Z,16.99
2022-09-24T15:42:44.453Z,16.89
2022-09-24T16:02:44.486Z,16.17
2022-09-24T16:12:44.379Z,15.92
2022-09-24T16:22:44.398Z,15.87
2022-09-24T16:32:44.385Z,15.63
2022-09-24T16:42:44.366Z,15.85
2022-09-24T16:52:44.329Z,15.86
2022-09-24T17:02:44.407Z,15.79
2022-09-24T17:12:44.323Z,15.55
2022-09-24T17:22:44.358Z,15.41
2022-09-24T17:32:44.319Z,15.32
2022-09-24T17:42:44.346Z,15.01
2022-09-24T17:52:44.299Z,14.82
2022-09-24T18:02:44.375Z,14.87
2022-09-24T18:12:44.294Z,14.95
2022-09-24T18:22:44.293Z,14.86
2022-09-24T18:32:44.276Z,14.83
2022-09-24T18:42:44.282Z,14.8
2022-09-24T18:52:44.224Z,14.78
2022-09-24T19:02:44.383Z,14.68
2022-09-24T19:12:44.207Z,14.69
2022-09-24T19:22:44.238Z,14.76
2022-09-24T19:32:44.189Z,14.88
2022-09-24T19:42:44.338Z,15.05
2022-09-24T19:52:44.196Z,15.01
2022-09-24T20:02:44.355Z,15.19
2022-09-24T20:12:44.175Z,15.26
2022-09-24T20:22:44.305Z,15.2
2022-09-24T20:32:44.163Z,14.7
2022-09-24T20:42:44.204Z,14.41
2022-09-24T20:52:44.155Z,14.11
2022-09-24T21:02:44.190Z,14.19
2022-09-24T21:12:47.506Z,13.98
2022-09-24T21:22:44.247Z,13.93
2022-09-24T21:32:44.108Z,13.54
2022-09-24T21:42:44.114Z,13.2
2022-09-24T21:52:44.086Z,13.07
2022-09-24T22:02:44.262Z,12.97
2022-09-24T22:12:44.088Z,13.03
2022-09-24T22:22:44.090Z,12.96
2022-09-24T22:32:44.067Z,12.8
2022-09-24T22:42:44.059Z,12.68
2022-09-24T22:52:44.045Z,12.57
2022-09-24T23:02:44.059Z,12.76
2022-09-24T23:12:44.034Z,12.83
2022-09-24T23:22:44.158Z,12.72
2022-09-24T23:32:44.030Z,12.62
2022-09-24T23:42:44.065Z,12.52
2022-09-24T23:52:44.057Z,12.52
